Time;durP1;ratioP1;P1;durP2;ratioP2;P2;SDS_P1;SDS_P2;PMS_P1;PMS_P2;Temp;Humidity;BMP_temperature;BMP_pressure;BME280_temperature;BME280_humidity;BME280_pressure;Samples;Min_cycle;Max_cycle;Signal;HPM_P1;HPM_P2
2022/05/06 00:00:22;;;;;;;4.75;1.10;;;15.80;99.90;;;;;;5059809;28;20343;-73
2022/05/06 00:02:54;;;;;;;2.80;0.90;;;16.00;99.90;;;;;;5055096;28;20209;-73
2022/05/06 00:05:27;;;;;;;4.22;1.42;;;16.00;99.90;;;;;;5057861;28;20200;-73
2022/05/06 00:07:57;;;;;;;2.92;1.10;;;16.20;99.90;;;;;;5058037;28;20196;-72
2022/05/06 00:10:28;;;;;;;2.30;0.80;;;16.30;99.90;;;;;;5054992;28;20193;-73
2022/05/06 00:12:58;;;;;;;2.10;1.00;;;16.30;99.90;;;;;;5061147;28;20271;-74
2022/05/06 00:15:29;;;;;;;2.78;0.85;;;16.40;99.90;;;;;;5058616;28;20207;-74
2022/05/06 00:18:00;;;;;;;2.67;0.80;;;16.30;99.90;;;;;;5057150;28;20201;-74
2022/05/06 00:20:32;;;;;;;3.22;1.25;;;16.50;99.90;;;;;;5057160;28;20616;-73
2022/05/06 00:23:02;;;;;;;4.63;0.98;;;16.50;99.90;;;;;;5059373;28;20217;-73
2022/05/06 00:25:33;;;;;;;1.30;0.50;;;16.50;99.90;;;;;;5061304;28;20246;-75
2022/05/06 00:28:07;;;;;;;1.83;0.70;;;16.60;99.90;;;;;;5066501;28;20225;-74
2022/05/06 00:30:38;;;;;;;2.80;0.60;;;16.70;99.90;;;;;;5056761;28;20199;-75
2022/05/06 00:33:09;;;;;;;2.30;0.80;;;16.80;99.90;;;;;;5065798;28;20205;-75
2022/05/06 00:35:43;;;;;;;4.13;0.98;;;16.80;99.90;;;;;;5070088;28;20244;-74
2022/05/06 00:38:13;;;;;;;1.05;0.68;;;16.80;99.90;;;;;;5060059;28;20284;-74
2022/05/06 00:40:44;;;;;;;2.25;0.90;;;16.90;99.90;;;;;;5059231;28;20193;-74
2022/05/06 00:43:15;;;;;;;2.10;0.70;;;17.10;99.90;;;;;;5060427;28;20201;-74
2022/05/06 00:45:52;;;;;;;7.32;1.30;;;17.10;99.90;;;;;;5057210;28;20196;-74
2022/05/06 00:48:24;;;;;;;3.97;1.30;;;17.10;99.90;;;;;;5068116;28;20589;-74
2022/05/06 00:50:59;;;;;;;2.17;0.60;;;17.30;99.90;;;;;;5057922;28;20209;-74
2022/05/06 00:53:30;;;;;;;1.15;0.50;;;17.30;99.90;;;;;;5065340;28;20200;-76
2022/05/06 00:56:01;;;;;;;2.85;0.68;;;17.30;99.90;;;;;;5062717;28;20633;-73
2022/05/06 00:58:33;;;;;;;3.13;0.73;;;17.40;99.90;;;;;;5064435;28;20232;-74
2022/05/06 01:01:06;;;;;;;1.58;0.60;;;17.40;99.90;;;;;;5076108;28;20192;-74
2022/05/06 01:03:37;;;;;;;1.92;0.70;;;17.50;99.90;;;;;;5076992;28;20270;-73
2022/05/06 01:06:13;;;;;;;1.73;0.52;;;17.50;99.90;;;;;;5093611;28;20249;-73
2022/05/06 01:08:44;;;;;;;2.80;0.77;;;17.50;99.90;;;;;;5086531;28;20199;-74
2022/05/06 01:11:16;;;;;;;0.90;0.57;;;17.60;99.90;;;;;;5076075;28;20201;-74
2022/05/06 01:13:53;;;;;;;2.63;0.80;;;17.70;99.90;;;;;;5084578;28;20197;-74
2022/05/06 01:16:24;;;;;;;3.22;0.80;;;17.70;99.90;;;;;;5086601;28;20196;-74
2022/05/06 01:18:55;;;;;;;4.88;1.13;;;17.80;99.90;;;;;;5084647;28;20201;-74
2022/05/06 01:21:32;;;;;;;2.63;0.73;;;17.80;99.90;;;;;;5085008;28;20631;-75
2022/05/06 01:24:05;;;;;;;1.48;0.80;;;17.80;99.90;;;;;;5078766;28;20193;-73
2022/05/06 01:27:03;;;;;;;2.63;0.70;;;17.80;99.90;;;;;;5081076;28;20570;-73
2022/05/06 01:29:34;;;;;;;2.95;0.82;;;18.10;99.90;;;;;;5044673;28;20619;-74
2022/05/06 01:32:05;;;;;;;2.75;0.70;;;18.30;99.90;;;;;;5078567;28;20231;-74
2022/05/06 01:34:37;;;;;;;1.83;0.77;;;18.30;99.90;;;;;;5086109;28;20191;-74
2022/05/06 01:37:09;;;;;;;2.72;0.90;;;18.30;99.90;;;;;;5089823;28;20197;-76
2022/05/06 01:39:45;;;;;;;2.88;0.70;;;18.30;99.90;;;;;;5093429;28;20181;-75
2022/05/06 01:42:18;;;;;;;0.75;0.52;;;18.40;99.90;;;;;;5077238;28;20223;-75
2022/05/06 01:44:51;;;;;;;3.15;0.90;;;18.30;99.90;;;;;;5078979;28;20628;-76
2022/05/06 01:47:24;;;;;;;2.33;0.43;;;18.30;99.90;;;;;;5078934;28;20268;-75
2022/05/06 01:49:56;;;;;;;4.03;0.70;;;18.40;99.90;;;;;;5076791;28;20250;-75
2022/05/06 01:52:28;;;;;;;3.42;0.60;;;18.50;99.90;;;;;;5087013;28;20197;-74
2022/05/06 01:55:01;;;;;;;2.38;0.60;;;18.50;99.90;;;;;;5085319;28;20219;-75
2022/05/06 01:57:31;;;;;;;2.53;0.60;;;18.60;99.90;;;;;;5081036;28;20262;-75
2022/05/06 02:00:02;;;;;;;4.18;0.65;;;18.60;99.90;;;;;;5075366;28;20701;-74
2022/05/06 02:02:33;;;;;;;2.53;0.55;;;18.60;99.90;;;;;;5081804;28;20274;-75
2022/05/06 02:05:20;;;;;;;3.97;0.75;;;18.80;99.90;;;;;;5087006;28;20193;-76
2022/05/06 02:07:52;;;;;;;1.83;0.60;;;18.70;99.90;;;;;;5093952;28;20659;-75
2022/05/06 02:10:26;;;;;;;3.40;0.60;;;18.70;99.90;;;;;;5084836;28;20201;-74
2022/05/06 02:12:57;;;;;;;3.70;0.65;;;18.80;99.90;;;;;;5086180;28;20197;-74
2022/05/06 02:15:28;;;;;;;2.60;0.65;;;18.80;99.90;;;;;;5079687;28;20189;-74
2022/05/06 02:17:58;;;;;;;1.95;0.60;;;18.80;99.90;;;;;;5088539;28;20629;-74
2022/05/06 02:20:29;;;;;;;0.90;0.50;;;19.00;99.90;;;;;;5086536;28;20200;-74
2022/05/06 02:22:59;;;;;;;2.88;0.50;;;18.90;99.90;;;;;;5080838;28;20209;-74
2022/05/06 02:25:32;;;;;;;0.93;0.65;;;18.90;99.90;;;;;;5075110;28;20242;-74
2022/05/06 02:28:02;;;;;;;1.63;0.50;;;18.90;99.90;;;;;;5076981;28;20599;-75
2022/05/06 02:33:23;;;;;;;2.15;0.70;;;18.80;99.90;;;;;;5086584;28;20318;-75
2022/05/06 02:35:55;;;;;;;0.82;0.65;;;18.90;99.90;;;;;;5074684;28;20189;-74
2022/05/06 02:38:26;;;;;;;3.28;0.90;;;19.00;99.90;;;;;;5074637;28;20254;-74
2022/05/06 02:40:59;;;;;;;2.28;1.10;;;19.00;99.90;;;;;;5087490;28;20197;-75
2022/05/06 02:43:30;;;;;;;3.47;1.08;;;19.00;99.90;;;;;;5075067;28;20248;-75
2022/05/06 02:46:00;;;;;;;1.70;0.70;;;19.10;99.90;;;;;;5074711;28;20185;-75
2022/05/06 02:48:31;;;;;;;1.38;0.60;;;19.10;99.90;;;;;;5082583;28;20192;-76
2022/05/06 02:51:02;;;;;;;1.63;0.40;;;19.20;99.90;;;;;;5075383;28;20200;-75
2022/05/06 02:53:32;;;;;;;0.90;0.40;;;19.20;99.90;;;;;;5074274;28;20185;-75
2022/05/06 02:56:05;;;;;;;2.78;0.60;;;19.20;99.90;;;;;;5083581;28;20226;-75
2022/05/06 02:58:36;;;;;;;4.10;0.75;;;19.20;99.90;;;;;;5076793;28;20220;-75
2022/05/06 03:01:06;;;;;;;2.03;0.77;;;19.20;99.90;;;;;;5074415;28;20192;-76
2022/05/06 03:03:37;;;;;;;2.00;0.60;;;19.30;99.90;;;;;;5078564;28;20684;-76
2022/05/06 03:06:08;;;;;;;3.22;0.60;;;19.30;99.90;;;;;;5085691;28;20582;-76
2022/05/06 03:08:38;;;;;;;2.67;0.60;;;19.40;99.90;;;;;;5081892;28;20194;-76
2022/05/06 03:11:11;;;;;;;4.78;0.55;;;19.30;99.90;;;;;;5075065;28;20189;-74
2022/05/06 03:13:41;;;;;;;2.78;0.70;;;19.40;99.90;;;;;;5073709;28;20652;-75
2022/05/06 03:16:12;;;;;;;1.63;0.65;;;19.40;99.90;;;;;;5073861;28;20575;-75
2022/05/06 03:18:42;;;;;;;1.30;0.80;;;19.30;99.90;;;;;;5075081;28;20556;-75
2022/05/06 03:21:13;;;;;;;1.23;0.70;;;19.30;99.90;;;;;;5088266;28;20533;-74
2022/05/06 03:23:44;;;;;;;3.88;0.50;;;19.20;99.90;;;;;;5073294;28;20212;-75
2022/05/06 03:26:16;;;;;;;3.72;0.80;;;19.20;99.90;;;;;;5073930;28;20185;-76
2022/05/06 03:28:48;;;;;;;1.05;0.50;;;19.20;99.90;;;;;;5078338;28;20253;-75
2022/05/06 03:31:19;;;;;;;2.08;0.60;;;19.10;99.90;;;;;;5091380;28;20189;-75
2022/05/06 03:33:49;;;;;;;2.35;0.60;;;19.10;99.90;;;;;;5085802;28;20290;-74
2022/05/06 03:36:20;;;;;;;1.88;0.60;;;19.20;99.90;;;;;;5093268;28;20192;-75
2022/05/06 03:38:51;;;;;;;1.45;0.52;;;19.10;99.90;;;;;;5091678;28;20257;-75
2022/05/06 03:41:24;;;;;;;1.48;0.60;;;19.00;99.90;;;;;;5073710;28;20189;-75
2022/05/06 03:43:54;;;;;;;3.38;0.93;;;19.00;99.90;;;;;;5073173;28;20606;-75
2022/05/06 03:46:25;;;;;;;1.95;0.57;;;19.00;99.90;;;;;;5073502;28;20239;-75
2022/05/06 03:48:56;;;;;;;3.38;0.60;;;19.00;99.90;;;;;;5074706;28;20593;-76
2022/05/06 03:51:25;;;;;;;1.27;0.68;;;19.00;99.90;;;;;;5077418;28;20271;-74
2022/05/06 03:53:56;;;;;;;1.70;0.60;;;19.00;99.90;;;;;;5089933;28;20197;-75
2022/05/06 03:56:29;;;;;;;3.03;0.70;;;19.10;99.90;;;;;;5085139;28;20277;-75
2022/05/06 03:59:00;;;;;;;2.03;0.65;;;19.10;99.90;;;;;;5079216;28;20220;-75
2022/05/06 04:01:30;;;;;;;7.93;3.33;;;19.10;99.90;;;;;;5073559;28;20193;-75
2022/05/06 04:04:01;;;;;;;20.75;13.93;;;19.10;99.90;;;;;;5072765;28;20290;-75
2022/05/06 04:06:33;;;;;;;7.90;3.85;;;19.20;99.90;;;;;;5072908;28;20557;-75
2022/05/06 04:09:04;;;;;;;16.40;7.90;;;19.30;99.90;;;;;;5080557;28;20234;-75
2022/05/06 04:11:36;;;;;;;3.65;2.15;;;19.30;99.90;;;;;;5073332;28;20192;-75
2022/05/06 04:14:09;;;;;;;1.60;0.90;;;19.30;99.90;;;;;;5073194;28;20230;-76
2022/05/06 04:16:41;;;;;;;1.67;1.15;;;19.30;99.90;;;;;;5073071;28;20193;-76
2022/05/06 04:19:12;;;;;;;2.67;1.08;;;19.20;99.90;;;;;;5080781;28;20200;-75
2022/05/06 04:24:29;;;;;;;2.25;0.60;;;19.20;99.90;;;;;;5081009;28;20196;-76
2022/05/06 04:27:02;;;;;;;1.65;0.75;;;19.20;99.90;;;;;;5084123;28;20193;-77
2022/05/06 04:29:32;;;;;;;1.63;0.70;;;19.20;99.90;;;;;;5073049;28;20193;-75
2022/05/06 04:32:03;;;;;;;1.83;0.70;;;19.20;99.90;;;;;;5072785;28;20193;-75
2022/05/06 04:34:34;;;;;;;2.75;0.60;;;19.20;99.90;;;;;;5072816;28;20208;-75
2022/05/06 04:37:05;;;;;;;3.97;0.98;;;19.20;99.90;;;;;;5075809;28;20561;-75
2022/05/06 04:39:36;;;;;;;2.72;0.73;;;19.20;99.90;;;;;;5074968;28;20184;-75
2022/05/06 04:42:11;;;;;;;1.05;0.60;;;19.30;99.90;;;;;;5076843;28;20200;-76
2022/05/06 04:44:41;;;;;;;1.25;0.50;;;19.30;99.90;;;;;;5077002;28;20230;-75
2022/05/06 04:47:12;;;;;;;1.20;0.65;;;19.30;99.90;;;;;;5077929;28;20193;-75
2022/05/06 04:49:43;;;;;;;0.95;0.57;;;19.30;99.90;;;;;;5085646;28;20270;-75
2022/05/06 04:52:13;;;;;;;1.75;0.60;;;19.40;99.90;;;;;;5076763;28;20189;-75
2022/05/06 04:54:44;;;;;;;2.42;0.90;;;19.40;99.90;;;;;;5088326;28;20213;-75
2022/05/06 04:57:16;;;;;;;3.25;0.60;;;19.40;99.90;;;;;;5077717;28;20243;-75
2022/05/06 04:59:48;;;;;;;0.82;0.60;;;19.40;99.90;;;;;;5082489;28;20690;-74
2022/05/06 05:02:19;;;;;;;2.95;0.70;;;19.30;99.90;;;;;;5077737;28;20620;-75
2022/05/06 05:04:56;;;;;;;4.93;0.90;;;19.20;99.90;;;;;;5076222;28;20242;-75
2022/05/06 05:07:27;;;;;;;1.70;0.60;;;19.20;99.90;;;;;;5076433;28;20263;-75
2022/05/06 05:09:57;;;;;;;1.77;0.60;;;19.20;99.90;;;;;;5082166;28;20246;-75
2022/05/06 05:12:31;;;;;;;3.05;0.90;;;19.30;99.90;;;;;;5076429;28;20189;-75
2022/05/06 05:15:01;;;;;;;2.63;0.75;;;19.30;99.90;;;;;;5076386;28;20192;-75
2022/05/06 05:17:32;;;;;;;1.02;0.50;;;19.30;99.90;;;;;;5080062;28;20197;-74
2022/05/06 05:20:03;;;;;;;1.13;0.47;;;19.30;99.90;;;;;;5075995;28;20188;-74
2022/05/06 05:22:34;;;;;;;0.70;0.63;;;19.20;99.90;;;;;;5076364;28;20209;-74
2022/05/06 05:25:05;;;;;;;16.50;1.55;;;19.20;99.90;;;;;;5076234;28;20268;-74
2022/05/06 05:27:38;;;;;;;6.57;0.93;;;19.20;99.90;;;;;;5078684;28;20273;-75
2022/05/06 05:30:11;;;;;;;4.25;0.77;;;19.20;99.90;;;;;;5083929;28;20188;-75
2022/05/06 05:32:42;;;;;;;0.80;0.65;;;19.20;99.90;;;;;;5076215;28;20193;-75
2022/05/06 05:35:13;;;;;;;5.15;0.90;;;19.10;99.90;;;;;;5077783;28;20629;-75
2022/05/06 05:37:44;;;;;;;2.08;0.70;;;19.10;99.90;;;;;;5080081;28;20189;-74
2022/05/06 05:40:15;;;;;;;1.88;0.70;;;19.10;99.90;;;;;;5076048;28;20659;-75
2022/05/06 05:42:47;;;;;;;2.38;0.70;;;19.10;99.90;;;;;;5075815;28;20205;-75
2022/05/06 05:48:23;;;;;;;2.05;0.75;;;19.00;99.90;;;;;;5076502;28;20326;-75
2022/05/06 05:50:54;;;;;;;4.20;0.90;;;18.90;99.90;;;;;;5083396;28;20205;-75
2022/05/06 05:53:24;;;;;;;1.35;0.80;;;19.00;99.90;;;;;;5084950;28;20204;-75
2022/05/06 05:55:55;;;;;;;1.80;0.75;;;19.10;99.90;;;;;;5086872;28;21774;-75
2022/05/06 05:58:27;;;;;;;1.02;0.60;;;19.10;99.90;;;;;;5084941;28;20229;-75
2022/05/06 06:00:59;;;;;;;1.02;0.55;;;19.20;99.90;;;;;;5080200;28;20195;-75
2022/05/06 06:03:29;;;;;;;0.93;0.60;;;19.10;99.90;;;;;;5085794;28;20224;-75
2022/05/06 06:06:00;;;;;;;2.25;0.63;;;19.00;99.90;;;;;;5081913;28;20241;-75
2022/05/06 06:08:31;;;;;;;2.22;0.60;;;18.90;99.90;;;;;;5084145;28;20201;-74
2022/05/06 06:11:02;;;;;;;2.65;0.60;;;18.80;99.90;;;;;;5085675;28;20230;-75
2022/05/06 06:13:34;;;;;;;2.10;0.60;;;18.70;99.90;;;;;;5077258;28;20284;-75
2022/05/06 06:16:05;;;;;;;1.48;0.50;;;18.60;99.90;;;;;;5091500;28;20243;-75
2022/05/06 06:18:36;;;;;;;1.55;0.65;;;18.60;99.90;;;;;;5080819;28;20193;-74
2022/05/06 06:21:06;;;;;;;2.15;0.60;;;18.50;99.90;;;;;;5081593;28;20194;-75
2022/05/06 06:23:37;;;;;;;3.90;0.73;;;18.50;99.90;;;;;;5082643;28;20262;-75
2022/05/06 06:26:08;;;;;;;1.42;0.70;;;18.40;99.90;;;;;;5080682;28;20181;-75
2022/05/06 06:28:41;;;;;;;2.83;0.88;;;18.30;99.90;;;;;;5074752;28;20652;-75
2022/05/06 06:31:12;;;;;;;2.50;0.70;;;18.30;99.90;;;;;;5080779;28;20197;-75
2022/05/06 06:33:43;;;;;;;3.90;0.82;;;18.30;99.90;;;;;;5086137;28;20268;-75
2022/05/06 06:36:13;;;;;;;1.67;0.60;;;18.20;99.90;;;;;;5084992;28;20193;-75
2022/05/06 06:38:44;;;;;;;2.22;0.75;;;18.10;99.90;;;;;;5091148;28;20189;-75
2022/05/06 06:41:15;;;;;;;2.42;0.50;;;18.00;99.90;;;;;;5075631;28;20204;-75
2022/05/06 06:43:47;;;;;;;1.17;0.60;;;18.00;99.90;;;;;;5086591;28;20217;-75
2022/05/06 06:46:18;;;;;;;1.35;0.70;;;18.00;99.90;;;;;;5090337;28;20196;-75
2022/05/06 06:48:49;;;;;;;0.88;0.45;;;17.90;99.90;;;;;;5077844;28;20197;-75
2022/05/06 06:51:20;;;;;;;1.95;0.70;;;17.80;99.90;;;;;;5081737;28;20218;-75
2022/05/06 06:53:53;;;;;;;3.40;0.80;;;17.70;99.90;;;;;;5078177;28;20201;-75
2022/05/06 06:56:24;;;;;;;1.55;0.60;;;17.50;99.90;;;;;;5086844;28;20251;-75
2022/05/06 06:58:57;;;;;;;1.10;0.70;;;17.40;99.90;;;;;;5077708;28;20790;-75
2022/05/06 07:01:27;;;;;;;2.00;0.70;;;17.30;99.90;;;;;;5081370;28;20197;-75
2022/05/06 07:03:58;;;;;;;1.38;0.80;;;17.20;99.90;;;;;;5073991;28;20221;-75
2022/05/06 07:12:02;;;;;;;1.25;0.70;;;16.90;99.90;;;;;;5074114;28;20669;-75
2022/05/06 07:14:35;;;;;;;3.78;0.63;;;16.80;99.90;;;;;;5074117;28;20193;-75
2022/05/06 07:17:07;;;;;;;1.73;0.82;;;16.70;99.90;;;;;;5075786;28;20200;-75
2022/05/06 07:19:38;;;;;;;1.95;0.73;;;16.50;99.90;;;;;;5088792;28;20193;-75
2022/05/06 07:22:08;;;;;;;2.28;0.90;;;16.50;99.90;;;;;;5080530;28;20653;-76
2022/05/06 07:24:39;;;;;;;1.75;0.80;;;16.40;99.90;;;;;;5088341;28;20266;-77
2022/05/06 07:27:10;;;;;;;2.20;0.75;;;16.30;99.90;;;;;;5074418;28;20200;-76
2022/05/06 07:29:42;;;;;;;2.28;0.80;;;16.20;99.90;;;;;;5083742;28;20196;-76
2022/05/06 07:32:13;;;;;;;3.22;0.95;;;16.10;99.90;;;;;;5080724;28;20197;-76
2022/05/06 07:34:45;;;;;;;3.20;1.33;;;16.10;99.90;;;;;;5074071;28;20270;-76
2022/05/06 07:37:17;;;;;;;3.70;1.30;;;16.00;99.90;;;;;;5079730;28;20793;-76
2022/05/06 07:39:47;;;;;;;2.80;1.45;;;15.90;99.90;;;;;;5077571;28;20279;-76
2022/05/06 07:42:18;;;;;;;3.13;1.50;;;15.90;99.90;;;;;;5073638;28;20690;-76
2022/05/06 07:44:51;;;;;;;3.58;1.70;;;15.90;99.90;;;;;;5073204;28;20574;-76
2022/05/06 07:47:21;;;;;;;3.90;1.70;;;15.80;99.90;;;;;;5073432;28;20189;-76
2022/05/06 07:49:52;;;;;;;3.25;1.60;;;15.80;99.90;;;;;;5073497;28;20189;-75
2022/05/06 07:52:23;;;;;;;4.45;1.65;;;15.80;99.90;;;;;;5081069;28;20185;-76
2022/05/06 07:54:54;;;;;;;3.65;1.90;;;15.80;99.90;;;;;;5086935;28;20270;-76
2022/05/06 07:57:24;;;;;;;5.05;2.30;;;15.80;99.90;;;;;;5074017;28;20201;-76
2022/05/06 07:59:57;;;;;;;3.35;1.77;;;15.70;99.90;;;;;;5072998;28;20220;-76
2022/05/06 08:05:14;;;;;;;3.38;1.90;;;15.60;99.90;;;;;;5073523;28;20218;-76
2022/05/06 08:07:46;;;;;;;5.07;2.00;;;15.60;99.90;;;;;;5073476;28;20189;-76
2022/05/06 08:10:16;;;;;;;3.55;1.67;;;15.60;99.90;;;;;;5080897;28;20275;-76
2022/05/06 08:12:47;;;;;;;5.18;1.98;;;15.60;99.90;;;;;;5081114;28;20197;-76
2022/05/06 08:15:19;;;;;;;5.85;2.20;;;15.50;99.90;;;;;;5080651;28;20197;-75
2022/05/06 08:17:51;;;;;;;5.45;1.98;;;15.40;99.90;;;;;;5072962;28;20557;-76
2022/05/06 08:20:22;;;;;;;5.10;1.98;;;15.40;99.90;;;;;;5089157;28;20640;-75
2022/05/06 08:22:52;;;;;;;6.47;2.03;;;15.40;99.90;;;;;;5072910;28;20640;-75
2022/05/06 08:25:23;;;;;;;4.70;2.00;;;15.30;99.90;;;;;;5074999;28;20232;-75
2022/05/06 08:27:54;;;;;;;4.70;2.00;;;15.30;99.90;;;;;;5092620;28;20188;-75
2022/05/06 08:30:27;;;;;;;5.35;2.50;;;15.30;99.90;;;;;;5073217;28;20255;-75
2022/05/06 08:32:57;;;;;;;5.85;1.90;;;15.30;99.90;;;;;;5072689;28;20632;-75
2022/05/06 08:35:28;;;;;;;4.30;2.00;;;15.30;99.90;;;;;;5073168;28;20197;-76
2022/05/06 08:37:59;;;;;;;4.53;2.25;;;15.30;99.90;;;;;;5072957;28;20189;-75
2022/05/06 08:40:31;;;;;;;5.32;2.55;;;15.10;99.90;;;;;;5092781;28;20181;-76
2022/05/06 08:43:02;;;;;;;5.47;2.10;;;15.10;99.90;;;;;;5085281;28;20192;-75
2022/05/06 08:51:08;;;;;;;6.55;2.00;;;15.00;99.90;;;;;;5084679;28;20196;-76
2022/05/06 08:53:40;;;;;;;3.47;1.77;;;14.80;99.90;;;;;;5072806;28;20246;-75
2022/05/06 08:56:11;;;;;;;3.90;2.17;;;14.90;99.90;;;;;;5076211;28;20703;-76
2022/05/06 08:58:41;;;;;;;5.45;2.55;;;14.90;99.90;;;;;;5073488;28;20220;-75
2022/05/06 09:01:17;;;;;;;3.58;2.13;;;14.90;99.90;;;;;;5080561;28;20188;-75
2022/05/06 09:03:48;;;;;;;5.60;2.50;;;14.90;99.90;;;;;;5077082;28;20682;-76
2022/05/06 09:06:22;;;;;;;5.32;2.40;;;14.80;99.90;;;;;;5083890;28;20203;-76
2022/05/06 09:08:54;;;;;;;5.20;2.33;;;14.80;99.90;;;;;;5073156;28;20670;-76
2022/05/06 09:14:10;;;;;;;8.02;2.65;;;14.80;99.90;;;;;;5082296;28;20246;-75
2022/05/06 09:16:41;;;;;;;6.28;2.80;;;14.70;99.90;;;;;;5075387;28;20206;-76
2022/05/06 09:19:25;;;;;;;6.82;2.88;;;14.70;99.90;;;;;;5076788;28;20208;-76
2022/05/06 09:22:11;;;;;;;6.22;2.40;;;14.60;99.90;;;;;;5079875;28;20656;-76
2022/05/06 09:24:42;;;;;;;6.30;2.67;;;14.50;99.90;;;;;;5080375;28;20215;-76
2022/05/06 09:27:14;;;;;;;5.90;2.40;;;14.50;99.90;;;;;;5086352;28;20242;-76
2022/05/06 09:29:46;;;;;;;7.63;2.88;;;14.50;99.90;;;;;;5089364;28;20196;-76
2022/05/06 09:32:22;;;;;;;5.60;2.45;;;14.50;99.90;;;;;;5094593;28;20606;-76
2022/05/06 09:34:55;;;;;;;3.85;2.35;;;14.50;99.90;;;;;;5084090;28;20184;-76
2022/05/06 09:37:41;;;;;;;4.97;2.60;;;14.60;99.90;;;;;;5089952;28;20610;-76
2022/05/06 09:40:14;;;;;;;6.43;2.72;;;14.60;99.90;;;;;;5089894;28;20192;-76
2022/05/06 09:42:46;;;;;;;5.93;2.70;;;14.50;99.90;;;;;;5084385;28;20660;-76
2022/05/06 09:45:30;;;;;;;7.22;2.65;;;14.60;99.90;;;;;;5081592;28;20215;-76
2022/05/06 09:48:04;;;;;;;5.07;2.53;;;14.60;99.90;;;;;;5089417;28;20209;-76
2022/05/06 09:50:36;;;;;;;6.72;2.35;;;14.70;99.90;;;;;;5082719;28;20216;-77
2022/05/06 09:53:08;;;;;;;6.35;2.70;;;14.80;99.90;;;;;;5092992;28;20184;-77
2022/05/06 09:55:40;;;;;;;3.58;2.38;;;14.90;99.90;;;;;;5081457;28;20232;-76
2022/05/06 09:58:11;;;;;;;4.90;2.47;;;14.90;99.90;;;;;;5083592;28;20224;-76
2022/05/06 10:00:42;;;;;;;7.35;3.00;;;15.00;99.90;;;;;;5083199;28;20646;-77
2022/05/06 10:03:15;;;;;;;6.45;3.55;;;15.00;99.90;;;;;;5085890;28;20246;-76
2022/05/06 10:05:45;;;;;;;9.27;3.83;;;15.00;99.90;;;;;;5083878;28;20215;-76
2022/05/06 10:08:18;;;;;;;9.55;3.95;;;15.00;99.90;;;;;;5095455;28;20238;-76
2022/05/06 10:10:57;;;;;;;8.30;3.85;;;15.00;99.90;;;;;;5083591;28;20189;-76
2022/05/06 10:13:31;;;;;;;12.90;4.40;;;15.00;99.90;;;;;;5078353;28;20592;-76
2022/05/06 10:16:02;;;;;;;8.30;3.58;;;14.90;99.90;;;;;;5075510;28;20201;-76
2022/05/06 10:18:39;;;;;;;8.10;4.20;;;14.90;99.90;;;;;;5080376;28;20245;-76
2022/05/06 10:21:10;;;;;;;12.13;4.15;;;14.90;99.90;;;;;;5075368;28;20200;-76
2022/05/06 10:23:48;;;;;;;8.60;3.88;;;14.90;99.90;;;;;;5090149;28;20647;-76
2022/05/06 10:26:43;;;;;;;8.48;4.10;;;14.80;99.90;;;;;;5082904;28;20193;-76
2022/05/06 10:32:28;;;;;;;9.52;4.25;;;14.70;99.90;;;;;;5082957;28;20200;-76
2022/05/06 10:35:15;;;;;;;10.30;4.10;;;14.70;99.90;;;;;;5081176;28;20192;-76
2022/05/06 10:37:47;;;;;;;9.55;4.10;;;14.70;99.90;;;;;;5080280;28;20201;-76
2022/05/06 10:40:33;;;;;;;7.28;4.10;;;14.70;99.90;;;;;;5079351;28;20247;-76
2022/05/06 10:43:05;;;;;;;7.75;4.20;;;14.70;99.90;;;;;;5075660;28;20196;-76
2022/05/06 10:45:36;;;;;;;7.05;3.72;;;14.60;99.90;;;;;;5079663;28;20220;-76
2022/05/06 10:48:22;;;;;;;5.95;3.60;;;14.70;99.90;;;;;;5081656;28;20199;-76
2022/05/06 10:50:55;;;;;;;8.82;3.53;;;14.60;99.90;;;;;;5077685;28;20200;-76
2022/05/06 10:53:39;;;;;;;8.00;3.65;;;14.60;99.90;;;;;;5082332;28;20196;-76
2022/05/06 10:56:09;;;;;;;6.65;3.05;;;14.60;99.90;;;;;;5077227;28;20720;-76
2022/05/06 10:58:40;;;;;;;8.95;3.03;;;14.60;99.90;;;;;;5086277;28;20690;-76
2022/05/06 11:01:18;;;;;;;7.72;2.65;;;14.50;99.90;;;;;;5085456;28;20215;-76
2022/05/06 11:03:55;;;;;;;6.00;2.63;;;14.50;99.90;;;;;;5085089;28;20227;-76
2022/05/06 11:06:28;;;;;;;5.55;2.42;;;14.50;99.90;;;;;;5076703;28;20609;-76
2022/05/06 11:08:59;;;;;;;7.13;2.70;;;14.50;99.90;;;;;;5084831;28;20196;-76
2022/05/06 11:11:38;;;;;;;5.32;2.58;;;14.40;99.90;;;;;;5077343;28;20699;-76
2022/05/06 11:14:23;;;;;;;8.57;2.63;;;14.40;99.90;;;;;;5081702;28;20194;-76
2022/05/06 11:16:54;;;;;;;5.00;2.50;;;14.40;99.90;;;;;;5079673;28;20566;-76
2022/05/06 11:19:37;;;;;;;5.40;2.45;;;14.30;99.90;;;;;;5082309;28;20197;-76
2022/05/06 11:22:13;;;;;;;5.32;2.42;;;14.30;99.90;;;;;;5083705;28;20184;-76
2022/05/06 11:24:45;;;;;;;6.03;2.38;;;14.30;99.90;;;;;;5085002;28;20675;-76
2022/05/06 11:27:17;;;;;;;5.47;2.45;;;14.20;99.90;;;;;;5075654;28;20205;-76
2022/05/06 11:29:51;;;;;;;4.05;2.25;;;14.20;99.90;;;;;;5081607;28;20185;-76
2022/05/06 11:32:25;;;;;;;6.30;2.13;;;14.20;99.90;;;;;;5082635;28;20222;-76
2022/05/06 11:35:08;;;;;;;3.22;2.03;;;14.10;99.90;;;;;;5078269;28;20216;-76
2022/05/06 11:37:44;;;;;;;4.53;2.17;;;14.00;99.90;;;;;;5073310;28;20708;-76
2022/05/06 11:40:36;;;;;;;3.70;1.67;;;14.00;99.90;;;;;;5076818;28;20694;-76
2022/05/06 11:43:25;;;;;;;4.32;2.03;;;14.00;99.90;;;;;;5080195;28;20188;-76
2022/05/06 11:48:46;;;;;;;4.20;1.70;;;13.90;99.90;;;;;;5093118;28;20215;-76
2022/05/06 11:51:21;;;;;;;5.22;2.13;;;13.80;99.90;;;;;;5083847;28;20191;-76
2022/05/06 11:53:55;;;;;;;3.90;1.52;;;13.80;99.90;;;;;;5078179;28;20196;-76
2022/05/06 11:56:26;;;;;;;2.22;1.67;;;13.70;99.90;;;;;;5084106;28;20189;-76
2022/05/06 11:59:00;;;;;;;4.15;1.60;;;13.60;99.90;;;;;;5078554;28;20221;-76
2022/05/06 12:01:32;;;;;;;4.30;1.70;;;13.60;99.90;;;;;;5079710;28;20201;-76
2022/05/06 12:04:04;;;;;;;3.00;1.60;;;13.50;99.90;;;;;;5071033;28;20197;-76
2022/05/06 12:06:41;;;;;;;2.83;1.45;;;13.50;99.90;;;;;;5072259;28;20221;-75
2022/05/06 12:09:14;;;;;;;6.00;1.75;;;13.50;99.90;;;;;;5081614;28;20198;-75
2022/05/06 12:11:46;;;;;;;6.10;1.90;;;13.40;99.90;;;;;;5081791;28;20200;-76
2022/05/06 12:14:19;;;;;;;5.47;1.63;;;13.40;99.90;;;;;;5083874;28;20192;-76
2022/05/06 12:17:00;;;;;;;5.50;1.63;;;13.40;99.90;;;;;;5086133;28;20638;-76
2022/05/06 12:19:38;;;;;;;3.97;1.77;;;13.30;99.90;;;;;;5084067;28;20286;-76
2022/05/06 12:22:10;;;;;;;3.42;1.70;;;13.30;99.90;;;;;;5084717;28;20663;-76
2022/05/06 12:24:49;;;;;;;3.10;1.85;;;13.30;99.90;;;;;;5088764;28;20278;-76
2022/05/06 12:27:27;;;;;;;6.30;2.22;;;13.30;99.90;;;;;;5081741;28;20192;-76
2022/05/06 12:30:00;;;;;;;3.35;1.80;;;13.20;99.90;;;;;;5081332;28;20694;-76
2022/05/06 12:32:31;;;;;;;5.20;2.00;;;13.20;99.90;;;;;;5072571;28;20272;-76
2022/05/06 12:35:09;;;;;;;3.13;1.80;;;13.20;99.90;;;;;;5072807;28;20539;-76
2022/05/06 12:37:54;;;;;;;5.82;1.80;;;13.20;99.90;;;;;;5073517;28;20253;-76
2022/05/06 12:40:31;;;;;;;3.85;1.92;;;13.20;99.90;;;;;;5077512;28;20192;-76
2022/05/06 12:43:09;;;;;;;4.32;1.75;;;13.20;99.90;;;;;;5078250;28;20559;-76
2022/05/06 12:45:40;;;;;;;3.10;1.63;;;13.20;99.90;;;;;;5072931;28;20213;-76
2022/05/06 12:50:58;;;;;;;3.63;1.70;;;13.10;99.90;;;;;;5078882;28;20204;-76
2022/05/06 12:53:28;;;;;;;2.58;1.45;;;13.10;99.90;;;;;;5073843;28;20193;-76
2022/05/06 12:56:01;;;;;;;3.72;1.80;;;13.10;99.90;;;;;;5083324;28;20212;-77
2022/05/06 12:58:32;;;;;;;4.20;1.90;;;13.10;99.90;;;;;;5076902;28;20275;-76
2022/05/06 13:01:03;;;;;;;3.20;1.60;;;13.10;99.90;;;;;;5074691;28;20193;-76
2022/05/06 13:03:33;;;;;;;3.13;1.63;;;13.00;99.90;;;;;;5088088;28;20188;-76
2022/05/06 13:06:04;;;;;;;3.53;1.70;;;13.00;99.90;;;;;;5080060;28;20217;-76
2022/05/06 13:08:34;;;;;;;4.28;1.52;;;13.00;99.90;;;;;;5080556;28;20201;-76
2022/05/06 13:11:07;;;;;;;3.28;1.60;;;12.90;99.90;;;;;;5078352;28;20196;-76
2022/05/06 13:13:38;;;;;;;4.03;1.98;;;13.00;99.90;;;;;;5083429;28;20535;-76
2022/05/06 13:16:08;;;;;;;3.05;1.58;;;13.00;99.90;;;;;;5077393;28;20189;-76
2022/05/06 13:18:39;;;;;;;3.28;1.35;;;13.00;99.90;;;;;;5075968;28;20193;-76
2022/05/06 13:21:10;;;;;;;2.80;1.60;;;13.00;99.90;;;;;;5084417;28;20192;-76
2022/05/06 13:23:42;;;;;;;3.05;1.70;;;12.90;99.90;;;;;;5079688;28;20185;-76
2022/05/06 13:26:15;;;;;;;2.80;1.73;;;12.90;99.90;;;;;;5081086;28;20683;-76
2022/05/06 13:28:46;;;;;;;2.72;1.40;;;12.90;99.90;;;;;;5076349;28;20227;-75
2022/05/06 13:31:17;;;;;;;2.35;1.63;;;12.90;99.90;;;;;;5090473;28;20181;-76
2022/05/06 13:33:47;;;;;;;2.20;1.20;;;12.80;99.90;;;;;;5082836;28;20897;-76
2022/05/06 13:36:18;;;;;;;3.22;1.30;;;12.90;99.90;;;;;;5085410;28;20655;-76
2022/05/06 13:38:49;;;;;;;3.97;1.58;;;12.80;99.90;;;;;;5083887;28;20185;-76
2022/05/06 13:41:21;;;;;;;4.32;1.52;;;12.70;99.90;;;;;;5076020;28;20192;-76
2022/05/06 13:43:52;;;;;;;3.65;1.58;;;12.70;99.90;;;;;;5082205;28;20203;-76
2022/05/06 13:46:23;;;;;;;3.95;1.42;;;12.60;99.90;;;;;;5087547;28;20675;-76